Christian Radich — LJLM — position and weather

sailwx.info

Track history (hours):
 
Tides and Currents Weather Stations Pressure Air Temp Water Temp Dewpoint Dewpoint Depression Visibility Wind Speed Wind Dir Waves Ship Positions

Christian Radich (Norway)

Last reported at 2017-Dec-07 04:49 UTC. Time now 2017-Dec-14 06:06 UTC.
Position N 15°38' W 061°41'.

Length 63 m; draft 5 m.

Type: Sailing vessel. MMSI: 258373000.

Date/timePositionNaut miles runAvg speedWind from/ knotsBaromVisibWave heightAir tempDewpointWater temp
2017-Dec-07 04:49N 15°38' W 061°41'2 4.7
2017-Dec-07 04:30N 15°40' W 061°41'2 3.8
2017-Dec-07 03:56N 15°42' W 061°41'  
2017-Dec-03 18:21N 17°56' W 062°60'2 6.7
2017-Dec-03 18:00N 17°56' W 063°02'4 6.5
2017-Dec-03 17:27N 17°58' W 063°06'3 6.7
2017-Dec-03 17:00N 18°00' W 063°08'3 7.0
2017-Dec-03 16:30N 18°03' W 063°10'3 5.0
2017-Dec-03 15:59N 18°05' W 063°09'1 2.5
2017-Dec-03 15:28N 18°06' W 063°08'2 3.2
2017-Dec-03 14:59N 18°05' W 063°06'0 1.0
2017-Dec-03 14:30N 18°05' W 063°06'0 0.0
2017-Dec-03 14:00N 18°05' W 063°06'0 0.0
2017-Dec-03 13:04N 18°05' W 063°06'0 0.1
2017-Dec-03 12:46N 18°05' W 063°06'0 0.0
2017-Dec-03 12:25N 18°05' W 063°06'0 0.0
2017-Dec-03 11:59N 18°05' W 063°06'0 0.0
2017-Dec-03 11:21N 18°05' W 063°06'0 0.0
2017-Dec-03 10:59N 18°05' W 063°06'0 0.0
2017-Dec-03 10:21N 18°05' W 063°06'0 0.0
2017-Dec-03 09:45N 18°05' W 063°06'0 0.0
2017-Dec-03 09:30N 18°05' W 063°06'0 0.0
2017-Dec-03 08:56N 18°05' W 063°06'0 0.0
2017-Dec-03 08:28N 18°05' W 063°06'0 0.0
2017-Dec-03 07:55N 18°05' W 063°06'0 0.0
2017-Dec-03 07:29N 18°05' W 063°06'0 0.0
2017-Dec-03 06:35N 18°05' W 063°06'0 0.1
2017-Dec-03 06:23N 18°05' W 063°06'0 0.0
2017-Dec-03 06:00N 18°05' W 063°06'0 0.0
2017-Dec-03 05:27N 18°05' W 063°06'0 0.0
2017-Dec-03 04:45N 18°05' W 063°06'0 0.0
2017-Dec-03 04:25N 18°05' W 063°06'0 0.0
2017-Dec-03 03:55N 18°05' W 063°06'0 0.0
2017-Dec-03 03:22N 18°05' W 063°06'0 0.0
2017-Dec-03 02:16N 18°05' W 063°06'0 0.0
2017-Dec-03 00:59N 18°05' W 063°06'0 0.0
2017-Dec-03 00:27N 18°05' W 063°06'0 0.1
2017-Dec-02 23:48N 18°05' W 063°06'0 0.0
2017-Dec-02 23:24N 18°05' W 063°06'0 0.0
2017-Dec-02 23:00N 18°05' W 063°06'0 0.0
2017-Dec-02 22:31N 18°05' W 063°06'0 0.0
2017-Dec-02 21:34N 18°05' W 063°06'0 0.0
2017-Dec-02 21:19N 18°05' W 063°06'0 0.1
2017-Dec-02 20:56N 18°05' W 063°06'0 0.0
2017-Dec-02 20:29N 18°05' W 063°06'0 0.0
2017-Dec-02 19:50N 18°05' W 063°06'0 0.0
2017-Dec-02 19:30N 18°05' W 063°06'0 0.1
2017-Dec-02 18:51N 18°05' W 063°06'0 0.0
2017-Dec-02 18:27N 18°05' W 063°06'0 0.1
2017-Dec-02 18:01N 18°05' W 063°06'1 0.8
2017-Dec-02 16:28N 18°05' W 063°05'1 0.1
2017-Dec-02 10:46N 18°05' W 063°06'0 0.7
2017-Dec-02 10:20N 18°05' W 063°06'0 0.0
2017-Dec-02 09:09N 18°05' W 063°06'0 0.1
2017-Dec-02 08:51N 18°05' W 063°06'0 0.0
2017-Dec-02 08:27N 18°05' W 063°06'0 0.1
2017-Dec-02 07:52N 18°05' W 063°06'0 0.1
2017-Dec-02 07:28N 18°05' W 063°06'0 0.0
2017-Dec-02 06:52N 18°05' W 063°06'0 0.0
2017-Dec-02 06:23N 18°05' W 063°06'0 0.0
2017-Dec-02 05:59N 18°05' W 063°06'0 0.0
2017-Dec-02 05:27N 18°05' W 063°06'0 0.0
2017-Dec-02 04:36N 18°05' W 063°06'0 0.1
2017-Dec-02 04:26N 18°05' W 063°06'0 0.0
2017-Dec-02 03:59N 18°05' W 063°06'0 0.0
2017-Dec-02 03:22N 18°05' W 063°06'0 0.0
2017-Dec-02 02:05N 18°05' W 063°06'0 0.0
2017-Dec-02 01:44N 18°05' W 063°06'0 0.0
2017-Dec-02 01:29N 18°05' W 063°06'0 0.0
2017-Dec-02 00:53N 18°05' W 063°06'0 0.0
2017-Dec-01 23:47N 18°05' W 063°06'0 0.0
2017-Dec-01 22:21N 18°05' W 063°06'0 0.0
2017-Dec-01 21:51N 18°05' W 063°06'0 0.0
2017-Dec-01 21:30N 18°05' W 063°06'0 0.0
2017-Dec-01 20:28N 18°05' W 063°06'0 0.0
2017-Dec-01 19:52N 18°05' W 063°06'0 0.0
2017-Dec-01 19:23N 18°05' W 063°06'0 0.1
2017-Dec-01 18:59N 18°05' W 063°06'0 0.0
2017-Dec-01 18:23N 18°05' W 063°06'0 0.0
2017-Dec-01 17:57N 18°05' W 063°06'0 0.0
2017-Dec-01 17:24N 18°05' W 063°06'0 0.0
2017-Dec-01 16:57N 18°05' W 063°06'0 0.0
2017-Dec-01 16:19N 18°05' W 063°06'0 0.0
2017-Dec-01 15:40N 18°05' W 063°06'0 0.1
2017-Dec-01 15:28N 18°05' W 063°06'0 0.0
2017-Dec-01 13:27N 18°05' W 063°06'0 0.0
2017-Dec-01 13:00N 18°05' W 063°06'0 0.0
2017-Dec-01 11:46N 18°05' W 063°06'0 0.0
2017-Dec-01 11:22N 18°05' W 063°06'0 0.0
2017-Dec-01 10:59N 18°05' W 063°06'0 0.0
2017-Dec-01 10:20N 18°05' W 063°06'0 0.0
2017-Dec-01 09:59N 18°05' W 063°06'0 0.0
2017-Dec-01 09:29N 18°05' W 063°06'0 0.0
2017-Dec-01 08:57N 18°05' W 063°06'0 0.0
2017-Dec-01 05:14N 18°05' W 063°06'0 0.0
2017-Dec-01 04:59N 18°05' W 063°06'0 0.0
2017-Dec-01 03:30N 18°05' W 063°06'0 0.0
2017-Dec-01 02:58N 18°05' W 063°06'0 0.0
2017-Dec-01 02:04N 18°05' W 063°06'0 0.0
2017-Nov-30 23:36N 18°05' W 063°06'0 0.0
2017-Nov-30 23:17N 18°05' W 063°06'0 0.0
2017-Nov-30 23:00N 18°05' W 063°06'0 0.0
2017-Nov-30 19:11N 18°05' W 063°06'0 0.0
2017-Nov-30 18:51N 18°05' W 063°06'0 0.0
2017-Nov-30 18:30N 18°05' W 063°06'0 0.0
2017-Nov-30 17:04N 18°05' W 063°06'0 0.0
2017-Nov-30 16:50N 18°05' W 063°06'0 0.0
2017-Nov-30 16:30N 18°05' W 063°06'48 1.3
2017-Nov-29 02:48N 17°29' W 062°32'3 5.9
2017-Nov-29 02:19N 17°27' W 062°30'2 5.6
2017-Nov-29 02:00N 17°26' W 062°29'3 5.1
2017-Nov-29 01:31N 17°24' W 062°27'2 4.9
2017-Nov-29 01:01N 17°22' W 062°25'2 4.8
2017-Nov-29 00:31N 17°21' W 062°23'3 5.5
2017-Nov-29 00:01N 17°19' W 062°21'2 4.5
2017-Nov-28 23:30N 17°17' W 062°20'2 3.7
2017-Nov-28 22:58N 17°16' W 062°18'2 3.5
2017-Nov-28 22:30N 17°15' W 062°17'2 4.1
2017-Nov-28 22:00N 17°13' W 062°16'2 4.3
2017-Nov-28 21:30N 17°11' W 062°15'2 3.3
2017-Nov-28 21:00N 17°09' W 062°14'1 2.9
2017-Nov-28 20:30N 17°08' W 062°13'2 3.3
2017-Nov-28 19:58N 17°07' W 062°12'2 4.3
2017-Nov-28 19:30N 17°05' W 062°11'3 3.9
2017-Nov-28 18:43N 17°03' W 062°09'1 3.2
2017-Nov-28 18:30N 17°02' W 062°08'2 3.5
2017-Nov-28 17:56N 17°01' W 062°07'1 3.2
2017-Nov-28 17:30N 17°00' W 062°06'2 4.6
2017-Nov-28 17:00N 16°58' W 062°04'2 4.3
2017-Nov-28 16:30N 16°57' W 062°03'2 4.6
2017-Nov-28 16:01N 16°55' W 062°01'5 4.7
2017-Nov-28 15:00N 16°52' W 061°57'2 4.2
2017-Nov-28 14:30N 16°51' W 061°56'2 4.2
2017-Nov-28 14:00N 16°50' W 061°54'2 3.5
2017-Nov-28 13:30N 16°48' W 061°52'2 3.8
2017-Nov-28 13:00N 16°47' W 061°51'2 5.0
2017-Nov-28 12:30N 16°46' W 061°49'3 6.0
2017-Nov-28 12:00N 16°45' W 061°45'3 5.9
2017-Nov-28 11:30N 16°45' W 061°42'3 6.1
2017-Nov-28 11:00N 16°45' W 061°39'3 6.4
2017-Nov-28 10:30N 16°44' W 061°36'3 6.8
2017-Nov-28 10:01N 16°43' W 061°32'3 6.8
2017-Nov-28 09:31N 16°43' W 061°29'3 6.8
2017-Nov-28 09:00N 16°42' W 061°25'3 6.8
2017-Nov-28 08:31N 16°42' W 061°22'3 6.9
2017-Nov-28 08:00N 16°41' W 061°18'4 7.1
2017-Nov-28 07:30N 16°41' W 061°15'4 7.8
2017-Nov-28 07:00N 16°40' W 061°11'4 7.9
2017-Nov-28 06:31N 16°39' W 061°07'  
Track history (hours):
 
Tides and Currents Weather Stations Pressure Air Temp Water Temp Dewpoint Dewpoint Depression Visibility Wind Speed Wind Dir Waves Ship Positions

Christian Radich (Norway)

Last reported at 2017-Dec-07 04:49 UTC. Time now 2017-Dec-14 06:06 UTC.
Position N 15°38' W 061°41'.

Length 63 m; draft 5 m.

Type: Sailing vessel. MMSI: 258373000.

Date/timePositionNaut miles runAvg speedWind from/ knotsBaromVisibWave heightAir tempDewpointWater temp
2017-Dec-07 04:49N 15°38' W 061°41'2 4.7
2017-Dec-07 04:30N 15°40' W 061°41'2 3.8
2017-Dec-07 03:56N 15°42' W 061°41'  
2017-Dec-03 18:21N 17°56' W 062°60'2 6.7
2017-Dec-03 18:00N 17°56' W 063°02'4 6.5
2017-Dec-03 17:27N 17°58' W 063°06'3 6.7
2017-Dec-03 17:00N 18°00' W 063°08'3 7.0
2017-Dec-03 16:30N 18°03' W 063°10'3 5.0
2017-Dec-03 15:59N 18°05' W 063°09'1 2.5
2017-Dec-03 15:28N 18°06' W 063°08'2 3.2
2017-Dec-03 14:59N 18°05' W 063°06'0 1.0
2017-Dec-03 14:30N 18°05' W 063°06'0 0.0
2017-Dec-03 14:00N 18°05' W 063°06'0 0.0
2017-Dec-03 13:04N 18°05' W 063°06'0 0.1
2017-Dec-03 12:46N 18°05' W 063°06'0 0.0
2017-Dec-03 12:25N 18°05' W 063°06'0 0.0
2017-Dec-03 11:59N 18°05' W 063°06'0 0.0
2017-Dec-03 11:21N 18°05' W 063°06'0 0.0
2017-Dec-03 10:59N 18°05' W 063°06'0 0.0
2017-Dec-03 10:21N 18°05' W 063°06'0 0.0
2017-Dec-03 09:45N 18°05' W 063°06'0 0.0
2017-Dec-03 09:30N 18°05' W 063°06'0 0.0
2017-Dec-03 08:56N 18°05' W 063°06'0 0.0
2017-Dec-03 08:28N 18°05' W 063°06'0 0.0
2017-Dec-03 07:55N 18°05' W 063°06'0 0.0
2017-Dec-03 07:29N 18°05' W 063°06'0 0.0
2017-Dec-03 06:35N 18°05' W 063°06'0 0.1
2017-Dec-03 06:23N 18°05' W 063°06'0 0.0
2017-Dec-03 06:00N 18°05' W 063°06'0 0.0
2017-Dec-03 05:27N 18°05' W 063°06'0 0.0
2017-Dec-03 04:45N 18°05' W 063°06'0 0.0
2017-Dec-03 04:25N 18°05' W 063°06'0 0.0
2017-Dec-03 03:55N 18°05' W 063°06'0 0.0
2017-Dec-03 03:22N 18°05' W 063°06'0 0.0
2017-Dec-03 02:16N 18°05' W 063°06'0 0.0
2017-Dec-03 00:59N 18°05' W 063°06'0 0.0
2017-Dec-03 00:27N 18°05' W 063°06'0 0.1
2017-Dec-02 23:48N 18°05' W 063°06'0 0.0
2017-Dec-02 23:24N 18°05' W 063°06'0 0.0
2017-Dec-02 23:00N 18°05' W 063°06'0 0.0
2017-Dec-02 22:31N 18°05' W 063°06'0 0.0
2017-Dec-02 21:34N 18°05' W 063°06'0 0.0
2017-Dec-02 21:19N 18°05' W 063°06'0 0.1
2017-Dec-02 20:56N 18°05' W 063°06'0 0.0
2017-Dec-02 20:29N 18°05' W 063°06'0 0.0
2017-Dec-02 19:50N 18°05' W 063°06'0 0.0
2017-Dec-02 19:30N 18°05' W 063°06'0 0.1
2017-Dec-02 18:51N 18°05' W 063°06'0 0.0
2017-Dec-02 18:27N 18°05' W 063°06'0 0.1
2017-Dec-02 18:01N 18°05' W 063°06'1 0.8
2017-Dec-02 16:28N 18°05' W 063°05'1 0.1
2017-Dec-02 10:46N 18°05' W 063°06'0 0.7
2017-Dec-02 10:20N 18°05' W 063°06'0 0.0
2017-Dec-02 09:09N 18°05' W 063°06'0 0.1
2017-Dec-02 08:51N 18°05' W 063°06'0 0.0
2017-Dec-02 08:27N 18°05' W 063°06'0 0.1
2017-Dec-02 07:52N 18°05' W 063°06'0 0.1
2017-Dec-02 07:28N 18°05' W 063°06'0 0.0
2017-Dec-02 06:52N 18°05' W 063°06'0 0.0
2017-Dec-02 06:23N 18°05' W 063°06'0 0.0
2017-Dec-02 05:59N 18°05' W 063°06'0 0.0
2017-Dec-02 05:27N 18°05' W 063°06'0 0.0
2017-Dec-02 04:36N 18°05' W 063°06'0 0.1
2017-Dec-02 04:26N 18°05' W 063°06'0 0.0
2017-Dec-02 03:59N 18°05' W 063°06'0 0.0
2017-Dec-02 03:22N 18°05' W 063°06'0 0.0
2017-Dec-02 02:05N 18°05' W 063°06'0 0.0
2017-Dec-02 01:44N 18°05' W 063°06'0 0.0
2017-Dec-02 01:29N 18°05' W 063°06'0 0.0
2017-Dec-02 00:53N 18°05' W 063°06'0 0.0
2017-Dec-01 23:47N 18°05' W 063°06'0 0.0
2017-Dec-01 22:21N 18°05' W 063°06'0 0.0
2017-Dec-01 21:51N 18°05' W 063°06'0 0.0
2017-Dec-01 21:30N 18°05' W 063°06'0 0.0
2017-Dec-01 20:28N 18°05' W 063°06'0 0.0
2017-Dec-01 19:52N 18°05' W 063°06'0 0.0
2017-Dec-01 19:23N 18°05' W 063°06'0 0.1
2017-Dec-01 18:59N 18°05' W 063°06'0 0.0
2017-Dec-01 18:23N 18°05' W 063°06'0 0.0
2017-Dec-01 17:57N 18°05' W 063°06'0 0.0
2017-Dec-01 17:24N 18°05' W 063°06'0 0.0
2017-Dec-01 16:57N 18°05' W 063°06'0 0.0
2017-Dec-01 16:19N 18°05' W 063°06'0 0.0
2017-Dec-01 15:40N 18°05' W 063°06'0 0.1
2017-Dec-01 15:28N 18°05' W 063°06'0 0.0
2017-Dec-01 13:27N 18°05' W 063°06'0 0.0
2017-Dec-01 13:00N 18°05' W 063°06'0 0.0
2017-Dec-01 11:46N 18°05' W 063°06'0 0.0
2017-Dec-01 11:22N 18°05' W 063°06'0 0.0
2017-Dec-01 10:59N 18°05' W 063°06'0 0.0
2017-Dec-01 10:20N 18°05' W 063°06'0 0.0
2017-Dec-01 09:59N 18°05' W 063°06'0 0.0
2017-Dec-01 09:29N 18°05' W 063°06'0 0.0
2017-Dec-01 08:57N 18°05' W 063°06'0 0.0
2017-Dec-01 05:14N 18°05' W 063°06'0 0.0
2017-Dec-01 04:59N 18°05' W 063°06'0 0.0
2017-Dec-01 03:30N 18°05' W 063°06'0 0.0
2017-Dec-01 02:58N 18°05' W 063°06'0 0.0
2017-Dec-01 02:04N 18°05' W 063°06'0 0.0
2017-Nov-30 23:36N 18°05' W 063°06'0 0.0
2017-Nov-30 23:17N 18°05' W 063°06'0 0.0
2017-Nov-30 23:00N 18°05' W 063°06'0 0.0
2017-Nov-30 19:11N 18°05' W 063°06'0 0.0
2017-Nov-30 18:51N 18°05' W 063°06'0 0.0
2017-Nov-30 18:30N 18°05' W 063°06'0 0.0
2017-Nov-30 17:04N 18°05' W 063°06'0 0.0
2017-Nov-30 16:50N 18°05' W 063°06'0 0.0
2017-Nov-30 16:30N 18°05' W 063°06'48 1.3
2017-Nov-29 02:48N 17°29' W 062°32'3 5.9
2017-Nov-29 02:19N 17°27' W 062°30'2 5.6
2017-Nov-29 02:00N 17°26' W 062°29'3 5.1
2017-Nov-29 01:31N 17°24' W 062°27'2 4.9
2017-Nov-29 01:01N 17°22' W 062°25'2 4.8
2017-Nov-29 00:31N 17°21' W 062°23'3 5.5
2017-Nov-29 00:01N 17°19' W 062°21'2 4.5
2017-Nov-28 23:30N 17°17' W 062°20'2 3.7
2017-Nov-28 22:58N 17°16' W 062°18'2 3.5
2017-Nov-28 22:30N 17°15' W 062°17'2 4.1
2017-Nov-28 22:00N 17°13' W 062°16'2 4.3
2017-Nov-28 21:30N 17°11' W 062°15'2 3.3
2017-Nov-28 21:00N 17°09' W 062°14'1 2.9
2017-Nov-28 20:30N 17°08' W 062°13'2 3.3
2017-Nov-28 19:58N 17°07' W 062°12'2 4.3
2017-Nov-28 19:30N 17°05' W 062°11'3 3.9
2017-Nov-28 18:43N 17°03' W 062°09'1 3.2
2017-Nov-28 18:30N 17°02' W 062°08'2 3.5
2017-Nov-28 17:56N 17°01' W 062°07'1 3.2
2017-Nov-28 17:30N 17°00' W 062°06'2 4.6
2017-Nov-28 17:00N 16°58' W 062°04'2 4.3
2017-Nov-28 16:30N 16°57' W 062°03'2 4.6
2017-Nov-28 16:01N 16°55' W 062°01'5 4.7
2017-Nov-28 15:00N 16°52' W 061°57'2 4.2
2017-Nov-28 14:30N 16°51' W 061°56'2 4.2
2017-Nov-28 14:00N 16°50' W 061°54'2 3.5
2017-Nov-28 13:30N 16°48' W 061°52'2 3.8
2017-Nov-28 13:00N 16°47' W 061°51'2 5.0
2017-Nov-28 12:30N 16°46' W 061°49'3 6.0
2017-Nov-28 12:00N 16°45' W 061°45'3 5.9
2017-Nov-28 11:30N 16°45' W 061°42'3 6.1
2017-Nov-28 11:00N 16°45' W 061°39'3 6.4
2017-Nov-28 10:30N 16°44' W 061°36'3 6.8
2017-Nov-28 10:01N 16°43' W 061°32'3 6.8
2017-Nov-28 09:31N 16°43' W 061°29'3 6.8
2017-Nov-28 09:00N 16°42' W 061°25'3 6.8
2017-Nov-28 08:31N 16°42' W 061°22'3 6.9
2017-Nov-28 08:00N 16°41' W 061°18'4 7.1
2017-Nov-28 07:30N 16°41' W 061°15'4 7.8
2017-Nov-28 07:00N 16°40' W 061°11'4 7.9
2017-Nov-28 06:31N 16°39' W 061°07'  

Dump ship's entire track history